Time;durP1;ratioP1;P1;durP2;ratioP2;P2;SDS_P1;SDS_P2;PMS_P1;PMS_P2;Temp;Humidity;BMP_temperature;BMP_pressure;BME280_temperature;BME280_humidity;BME280_pressure;Samples;Min_cycle;Max_cycle;Signal;HPM_P1;HPM_P2
2023/04/02 00:00:35;;;;;;;1.00;0.90;;;18.80;55.60;;;;;;4978968;28;20220;-65
2023/04/02 00:03:09;;;;;;;0.70;0.70;;;18.80;55.60;;;;;;4983466;28;20201;-65
2023/04/02 00:05:50;;;;;;;1.60;0.98;;;18.80;55.60;;;;;;4980371;28;20183;-65
2023/04/02 00:08:39;;;;;;;0.98;0.88;;;18.70;55.50;;;;;;4973717;28;20198;-65
2023/04/02 00:11:07;;;;;;;1.42;0.93;;;18.70;55.40;;;;;;4975321;28;20225;-65
2023/04/02 00:13:45;;;;;;;0.60;0.60;;;18.80;55.60;;;;;;4959155;28;20186;-65
2023/04/02 00:16:20;;;;;;;0.88;0.73;;;18.80;55.50;;;;;;4979324;28;20656;-66
2023/04/02 00:18:54;;;;;;;1.08;0.93;;;18.70;55.50;;;;;;4976904;28;20266;-65
2023/04/02 00:21:34;;;;;;;0.88;0.80;;;18.70;55.50;;;;;;4966377;28;20237;-66
2023/04/02 00:24:14;;;;;;;0.82;0.60;;;18.80;55.60;;;;;;4969575;28;20723;-66
2023/04/02 00:26:46;;;;;;;1.50;0.90;;;18.80;55.50;;;;;;4977777;28;20189;-66
2023/04/02 00:29:14;;;;;;;0.98;0.82;;;18.80;55.60;;;;;;4970021;28;20192;-65
2023/04/02 00:31:47;;;;;;;0.77;0.73;;;18.80;55.50;;;;;;4994520;28;20209;-65
2023/04/02 00:34:26;;;;;;;0.88;0.88;;;18.80;55.50;;;;;;4972217;28;20203;-65
2023/04/02 00:36:53;;;;;;;1.00;0.73;;;18.80;55.50;;;;;;4977676;28;20188;-65
2023/04/02 00:39:27;;;;;;;0.55;0.55;;;18.80;55.50;;;;;;4964566;28;20229;-66
2023/04/02 00:42:03;;;;;;;1.00;0.90;;;18.80;55.50;;;;;;4992139;28;20216;-65
2023/04/02 00:44:42;;;;;;;1.10;0.80;;;18.80;55.60;;;;;;4994134;28;20188;-65
2023/04/02 00:47:25;;;;;;;1.20;0.90;;;18.80;55.50;;;;;;4970335;28;20188;-65
2023/04/02 00:50:30;;;;;;;0.82;0.82;;;18.80;55.50;;;;;;4985710;28;20221;-67
2023/04/02 00:52:59;;;;;;;1.42;0.80;;;18.80;55.50;;;;;;4966909;28;20205;-66
2023/04/02 00:55:40;;;;;;;1.15;0.68;;;18.80;55.50;;;;;;4993867;28;20191;-65
2023/04/02 00:58:30;;;;;;;0.60;0.60;;;18.80;55.50;;;;;;4974302;28;20201;-65
2023/04/02 01:00:59;;;;;;;0.63;0.63;;;18.80;55.50;;;;;;4991898;28;20282;-65
2023/04/02 01:03:33;;;;;;;1.42;0.88;;;18.80;55.50;;;;;;4969649;28;20181;-65
2023/04/02 01:06:11;;;;;;;0.70;0.70;;;18.80;55.50;;;;;;4991263;28;20710;-65
2023/04/02 01:08:59;;;;;;;0.85;0.70;;;18.80;55.50;;;;;;4990324;28;20196;-65
2023/04/02 01:12:03;;;;;;;1.00;0.90;;;18.80;55.50;;;;;;4976842;28;20205;-65
2023/04/02 01:15:03;;;;;;;1.30;0.98;;;18.80;55.50;;;;;;4990512;28;20687;-66
2023/04/02 01:18:08;;;;;;;0.80;0.80;;;18.80;55.50;;;;;;4976907;28;20189;-65
2023/04/02 01:21:05;;;;;;;0.80;0.60;;;18.80;55.40;;;;;;4976462;28;20213;-66
2023/04/02 01:23:52;;;;;;;0.70;0.70;;;18.70;55.40;;;;;;4988211;28;20453;-65
2023/04/02 01:26:48;;;;;;;1.00;0.73;;;18.80;55.50;;;;;;4965948;28;20182;-65
2023/04/02 01:29:37;;;;;;;2.38;0.82;;;18.80;55.40;;;;;;4956810;28;20185;-65
2023/04/02 01:32:11;;;;;;;2.05;0.90;;;18.80;55.40;;;;;;4984786;28;20306;-65
2023/04/02 01:34:38;;;;;;;0.57;0.52;;;18.70;55.40;;;;;;4987142;28;20576;-65
2023/04/02 01:37:37;;;;;;;1.13;0.70;;;18.80;55.40;;;;;;4967589;28;20251;-66
2023/04/02 01:40:17;;;;;;;0.70;0.70;;;18.80;55.40;;;;;;4981236;28;20658;-65
2023/04/02 01:43:17;;;;;;;0.90;0.77;;;18.80;55.40;;;;;;4978325;28;20182;-65
2023/04/02 01:45:43;;;;;;;0.80;0.80;;;18.80;55.40;;;;;;4985714;28;20187;-65
2023/04/02 01:48:18;;;;;;;0.65;0.60;;;18.80;55.40;;;;;;4984508;28;20192;-65
2023/04/02 01:50:48;;;;;;;0.70;0.70;;;18.80;55.40;;;;;;4960283;28;20209;-65
2023/04/02 01:53:17;;;;;;;0.73;0.60;;;18.70;55.30;;;;;;4956997;28;20653;-66
2023/04/02 01:55:55;;;;;;;0.60;0.60;;;18.80;55.40;;;;;;4965065;28;20193;-65
2023/04/02 01:58:26;;;;;;;0.47;0.47;;;18.80;55.30;;;;;;4969802;28;20205;-65
2023/04/02 02:01:07;;;;;;;0.60;0.60;;;18.80;55.40;;;;;;4975987;28;20205;-65
2023/04/02 02:03:34;;;;;;;0.80;0.80;;;18.80;55.40;;;;;;4992759;28;20184;-65
2023/04/02 02:06:04;;;;;;;1.02;0.60;;;18.80;55.40;;;;;;4966048;28;20197;-65
2023/04/02 02:08:54;;;;;;;0.60;0.60;;;18.70;55.30;;;;;;4991928;28;20186;-65
2023/04/02 02:11:25;;;;;;;0.63;0.60;;;18.70;55.30;;;;;;4964836;28;20218;-65
2023/04/02 02:13:59;;;;;;;1.15;0.90;;;18.80;55.40;;;;;;4973385;28;20194;-66
2023/04/02 02:16:28;;;;;;;0.70;0.70;;;18.80;55.30;;;;;;4984072;28;20188;-65
2023/04/02 02:18:59;;;;;;;0.95;0.57;;;18.80;55.40;;;;;;4974864;28;20213;-65
2023/04/02 02:21:41;;;;;;;0.60;0.60;;;18.80;55.40;;;;;;4961478;28;20303;-66
2023/04/02 02:24:20;;;;;;;0.60;0.60;;;18.80;55.40;;;;;;4959715;28;20189;-65
2023/04/02 02:26:59;;;;;;;0.98;0.80;;;18.80;55.30;;;;;;4984389;28;20260;-65
2023/04/02 02:29:28;;;;;;;0.60;0.60;;;18.70;55.30;;;;;;4973033;28;20181;-65
2023/04/02 02:31:56;;;;;;;0.50;0.50;;;18.70;55.20;;;;;;4980154;28;20208;-65
2023/04/02 02:34:36;;;;;;;0.85;0.60;;;18.80;55.40;;;;;;4977177;28;20216;-65
2023/04/02 02:37:13;;;;;;;0.80;0.80;;;18.80;55.30;;;;;;4964530;28;20198;-66
2023/04/02 02:39:43;;;;;;;1.25;1.05;;;18.80;55.30;;;;;;4963422;28;20205;-65
2023/04/02 02:42:23;;;;;;;0.70;0.70;;;18.80;55.30;;;;;;4972915;28;20269;-65
2023/04/02 02:44:51;;;;;;;0.90;0.90;;;18.80;55.30;;;;;;4972635;28;20176;-65
2023/04/02 02:47:25;;;;;;;1.23;0.60;;;18.80;55.30;;;;;;4972127;28;20182;-65
2023/04/02 02:49:56;;;;;;;0.90;0.90;;;18.70;55.20;;;;;;4964431;28;20185;-65
2023/04/02 02:52:31;;;;;;;1.05;0.70;;;18.80;55.30;;;;;;4975361;28;20189;-65
2023/04/02 02:55:06;;;;;;;0.85;0.80;;;18.80;55.30;;;;;;4959592;28;20189;-65
2023/04/02 02:58:03;;;;;;;1.95;0.90;;;18.80;55.40;;;;;;4958658;28;20182;-65
2023/04/02 03:00:35;;;;;;;1.05;0.65;;;18.80;55.30;;;;;;4985999;28;20204;-65
2023/04/02 03:03:15;;;;;;;0.60;0.57;;;18.80;55.30;;;;;;4973532;28;20319;-65
2023/04/02 03:05:41;;;;;;;0.60;0.60;;;18.80;55.40;;;;;;4960879;28;20178;-65
2023/04/02 03:08:31;;;;;;;0.70;0.70;;;18.80;55.30;;;;;;4968226;28;20331;-65
2023/04/02 03:11:41;;;;;;;0.93;0.80;;;18.80;55.30;;;;;;4981993;28;20224;-65
2023/04/02 03:14:29;;;;;;;0.63;0.60;;;18.80;55.30;;;;;;4982732;28;20185;-65
2023/04/02 03:17:27;;;;;;;0.68;0.60;;;18.80;55.30;;;;;;4975882;28;20260;-65
2023/04/02 03:20:05;;;;;;;0.77;0.70;;;18.80;55.40;;;;;;4966704;28;20189;-65
2023/04/02 03:22:41;;;;;;;0.50;0.50;;;18.80;55.30;;;;;;4975635;28;20184;-66
2023/04/02 03:25:29;;;;;;;1.13;0.60;;;18.80;55.30;;;;;;4956691;28;20220;-65
2023/04/02 03:28:06;;;;;;;0.90;0.60;;;18.80;55.30;;;;;;4956701;28;20196;-65
2023/04/02 03:30:45;;;;;;;0.60;0.60;;;18.80;55.30;;;;;;4982924;28;20208;-66
2023/04/02 03:33:39;;;;;;;0.82;0.70;;;18.80;55.30;;;;;;4979768;28;20185;-66
2023/04/02 03:36:29;;;;;;;1.30;0.70;;;18.80;55.30;;;;;;4973648;28;20184;-65
2023/04/02 03:39:35;;;;;;;0.57;0.57;;;18.80;55.30;;;;;;4982517;28;20212;-65
2023/04/02 03:42:23;;;;;;;0.60;0.60;;;18.80;55.40;;;;;;4979077;28;20207;-65
2023/04/02 03:45:18;;;;;;;0.80;0.60;;;18.80;55.40;;;;;;4991107;28;20691;-65
2023/04/02 03:48:12;;;;;;;0.50;0.50;;;18.80;55.40;;;;;;4975118;28;20177;-65
2023/04/02 03:50:50;;;;;;;0.65;0.65;;;18.80;55.30;;;;;;4985611;28;20208;-65
2023/04/02 03:53:16;;;;;;;0.70;0.70;;;18.80;55.40;;;;;;4955491;28;20185;-65
2023/04/02 03:55:42;;;;;;;0.60;0.60;;;18.80;55.40;;;;;;4986288;28;20188;-65
2023/04/02 03:58:23;;;;;;;1.05;0.85;;;18.80;55.40;;;;;;4966881;28;20288;-66
2023/04/02 04:01:33;;;;;;;0.80;0.80;;;18.80;55.90;;;;;;4966333;28;20204;-65
2023/04/02 04:04:16;;;;;;;0.68;0.68;;;18.80;55.40;;;;;;4961913;28;20214;-65
2023/04/02 04:06:49;;;;;;;0.70;0.70;;;18.70;55.30;;;;;;4965579;28;20192;-65
2023/04/02 04:09:30;;;;;;;0.70;0.70;;;18.80;55.40;;;;;;4967370;28;20182;-65
2023/04/02 04:12:23;;;;;;;0.70;0.70;;;18.70;55.40;;;;;;4975268;28;20212;-65
2023/04/02 04:15:11;;;;;;;0.75;0.73;;;18.80;55.40;;;;;;4978170;28;20181;-65
2023/04/02 04:17:52;;;;;;;0.60;0.60;;;18.80;55.40;;;;;;4970057;28;20188;-65
2023/04/02 04:20:35;;;;;;;0.90;0.75;;;18.80;55.40;;;;;;4966775;28;20217;-65
2023/04/02 04:23:34;;;;;;;0.50;0.50;;;18.80;55.40;;;;;;4975946;28;20279;-66
2023/04/02 04:26:12;;;;;;;0.70;0.70;;;18.80;55.40;;;;;;4978373;28;20181;-65
2023/04/02 04:29:33;;;;;;;0.55;0.55;;;18.80;55.40;;;;;;4970552;28;20192;-65
2023/04/02 04:32:30;;;;;;;0.52;0.52;;;18.80;55.40;;;;;;4878606;29;20227;-65
2023/04/02 04:35:14;;;;;;;0.70;0.70;;;18.70;55.20;;;;;;4974715;28;20197;-65
2023/04/02 04:37:48;;;;;;;0.68;0.68;;;18.80;55.40;;;;;;4974575;28;20193;-66
2023/04/02 04:40:55;;;;;;;0.60;0.60;;;18.70;55.30;;;;;;4974007;28;20212;-65
2023/04/02 04:43:42;;;;;;;0.82;0.73;;;18.80;55.30;;;;;;4916551;29;20191;-66
2023/04/02 04:46:17;;;;;;;0.73;0.73;;;18.80;55.40;;;;;;4966921;28;20193;-65
2023/04/02 04:48:53;;;;;;;0.60;0.60;;;18.80;55.30;;;;;;4958136;28;20185;-64
2023/04/02 04:51:35;;;;;;;1.38;0.93;;;18.80;55.40;;;;;;4954020;28;20200;-65
2023/04/02 04:54:01;;;;;;;1.30;0.60;;;18.80;55.30;;;;;;4984753;28;20235;-65
2023/04/02 04:56:32;;;;;;;0.80;0.80;;;18.80;55.40;;;;;;4958600;28;20181;-65
2023/04/02 04:59:25;;;;;;;0.68;0.50;;;18.80;55.30;;;;;;4967205;28;20233;-65
2023/04/02 05:02:03;;;;;;;0.70;0.70;;;18.80;55.30;;;;;;4973844;28;20208;-64
2023/04/02 05:04:41;;;;;;;0.85;0.65;;;18.80;55.30;;;;;;4964229;28;20559;-65
2023/04/02 05:07:28;;;;;;;0.60;0.60;;;18.80;55.30;;;;;;4973307;28;20189;-65
2023/04/02 05:10:19;;;;;;;1.10;0.70;;;18.80;55.30;;;;;;4974048;28;20197;-65
2023/04/02 05:12:55;;;;;;;0.50;0.50;;;18.80;55.30;;;;;;4958107;28;20189;-65
2023/04/02 05:15:38;;;;;;;0.70;0.70;;;18.80;55.30;;;;;;4957446;28;20192;-65
2023/04/02 05:18:10;;;;;;;0.70;0.70;;;18.80;55.30;;;;;;4963392;28;20214;-65
2023/04/02 05:21:15;;;;;;;0.60;0.60;;;18.80;55.30;;;;;;4979113;28;20208;-65
2023/04/02 05:23:53;;;;;;;0.90;0.57;;;18.80;55.30;;;;;;4970495;28;20265;-64
2023/04/02 05:26:39;;;;;;;0.93;0.80;;;18.80;55.30;;;;;;4957362;28;20716;-65
2023/04/02 05:29:21;;;;;;;0.70;0.70;;;18.80;55.30;;;;;;4955553;28;20277;-65
2023/04/02 05:32:03;;;;;;;0.80;0.80;;;18.80;55.30;;;;;;4957397;28;20233;-66
2023/04/02 05:34:37;;;;;;;0.52;0.52;;;18.80;55.30;;;;;;4966237;28;20653;-64
2023/04/02 05:37:05;;;;;;;1.02;0.60;;;18.80;55.30;;;;;;4973451;28;20683;-65
2023/04/02 05:39:31;;;;;;;0.52;0.52;;;18.80;55.30;;;;;;4973462;28;20202;-65
2023/04/02 05:42:16;;;;;;;1.33;1.00;;;18.80;55.30;;;;;;4973013;28;20234;-65
2023/04/02 05:45:22;;;;;;;1.45;0.85;;;18.80;55.30;;;;;;4973350;28;20211;-65
2023/04/02 05:47:58;;;;;;;1.02;0.90;;;18.80;55.30;;;;;;4949510;28;20182;-66
2023/04/02 05:50:36;;;;;;;0.75;0.70;;;18.80;55.30;;;;;;4965636;28;20308;-65
2023/04/02 05:53:13;;;;;;;0.70;0.70;;;18.80;55.30;;;;;;4981605;28;20184;-65
2023/04/02 05:55:58;;;;;;;1.15;1.02;;;18.80;55.30;;;;;;4968340;28;20181;-65
2023/04/02 05:58:51;;;;;;;0.70;0.70;;;18.80;55.30;;;;;;4949377;28;20643;-65
2023/04/02 06:02:13;;;;;;;1.05;0.80;;;18.80;55.30;;;;;;4969521;28;20198;-65
2023/04/02 06:04:55;;;;;;;0.95;0.90;;;18.80;55.30;;;;;;4951205;28;20189;-65
2023/04/02 06:07:55;;;;;;;1.15;1.05;;;18.80;55.40;;;;;;4967695;28;20177;-65
2023/04/02 06:10:32;;;;;;;0.80;0.80;;;18.80;55.90;;;;;;4956294;28;20213;-65
2023/04/02 06:13:02;;;;;;;0.80;0.80;;;18.90;55.40;;;;;;4976386;28;20194;-64
2023/04/02 06:15:31;;;;;;;0.80;0.80;;;18.80;55.30;;;;;;4972752;28;20236;-65
2023/04/02 06:18:15;;;;;;;0.85;0.85;;;18.80;55.30;;;;;;4956791;28;20209;-65
2023/04/02 06:20:42;;;;;;;0.82;0.80;;;18.90;55.40;;;;;;4956541;28;20235;-65
2023/04/02 06:23:27;;;;;;;0.43;0.43;;;18.90;55.40;;;;;;4972811;28;20597;-65
2023/04/02 06:26:32;;;;;;;0.90;0.90;;;18.90;55.40;;;;;;4956854;28;20213;-64
2023/04/02 06:29:38;;;;;;;1.10;1.00;;;18.90;55.30;;;;;;4984510;28;20193;-65
2023/04/02 06:32:09;;;;;;;0.60;0.60;;;18.90;55.40;;;;;;4972067;28;20299;-65
2023/04/02 06:34:41;;;;;;;0.95;0.95;;;18.90;55.30;;;;;;4956703;28;20192;-65
2023/04/02 06:37:21;;;;;;;0.90;0.90;;;18.90;55.30;;;;;;4988419;28;20188;-65
2023/04/02 06:39:48;;;;;;;0.75;0.60;;;18.90;55.40;;;;;;4969247;28;20217;-65
2023/04/02 06:42:23;;;;;;;1.92;0.70;;;18.90;55.40;;;;;;4970752;28;20313;-64
2023/04/02 06:45:22;;;;;;;0.70;0.70;;;18.90;55.40;;;;;;4973418;28;20340;-64
2023/04/02 06:48:15;;;;;;;0.90;0.90;;;18.90;55.40;;;;;;4955877;28;20312;-65
2023/04/02 06:51:12;;;;;;;1.00;0.90;;;18.90;55.40;;;;;;4959632;28;20208;-65
2023/04/02 06:53:44;;;;;;;0.70;0.70;;;18.90;55.40;;;;;;4970275;28;20193;-65
2023/04/02 06:56:44;;;;;;;0.68;0.57;;;18.90;55.40;;;;;;4973948;28;20199;-65
2023/04/02 06:59:15;;;;;;;0.75;0.75;;;18.90;55.40;;;;;;4972084;28;20267;-65
2023/04/02 07:01:58;;;;;;;0.70;0.70;;;18.90;55.40;;;;;;4972063;28;20202;-66
2023/04/02 07:04:26;;;;;;;0.80;0.80;;;18.90;55.40;;;;;;4958706;28;20199;-64
2023/04/02 07:06:53;;;;;;;1.10;0.60;;;18.90;55.40;;;;;;4960601;28;20185;-64
2023/04/02 07:09:21;;;;;;;0.85;0.85;;;18.90;55.40;;;;;;4955984;28;20282;-65
2023/04/02 07:11:51;;;;;;;2.08;0.82;;;18.90;55.40;;;;;;4971748;28;20208;-65
2023/04/02 07:14:18;;;;;;;0.85;0.85;;;18.90;55.40;;;;;;4957740;28;20621;-65
2023/04/02 07:16:44;;;;;;;0.75;0.75;;;18.90;55.30;;;;;;4977696;28;20589;-64
2023/04/02 07:19:21;;;;;;;0.55;0.55;;;18.90;55.30;;;;;;4953203;28;20206;-66
2023/04/02 07:21:50;;;;;;;1.30;0.80;;;18.90;55.30;;;;;;4978089;28;20211;-64
2023/04/02 07:24:16;;;;;;;0.70;0.63;;;19.00;55.30;;;;;;4957721;28;20720;-65
2023/04/02 07:26:42;;;;;;;1.63;0.50;;;19.00;55.20;;;;;;4955739;28;20276;-65
2023/04/02 07:29:15;;;;;;;1.00;0.90;;;19.00;55.30;;;;;;4981414;28;20229;-65
2023/04/02 07:31:41;;;;;;;0.80;0.80;;;19.00;55.20;;;;;;4982946;28;20208;-64
2023/04/02 07:34:08;;;;;;;0.55;0.55;;;19.00;55.20;;;;;;4958479;28;20201;-65
2023/04/02 07:36:34;;;;;;;1.70;0.82;;;19.00;55.20;;;;;;4987315;28;20178;-65
2023/04/02 07:39:01;;;;;;;1.05;0.88;;;19.00;55.20;;;;;;4969325;28;20210;-65
2023/04/02 07:41:27;;;;;;;0.82;0.65;;;19.00;55.30;;;;;;4974429;28;20229;-64
2023/04/02 07:43:52;;;;;;;0.60;0.60;;;19.00;55.30;;;;;;4981882;28;20193;-65
2023/04/02 07:46:19;;;;;;;1.13;0.68;;;19.00;55.30;;;;;;4976886;28;20193;-64
2023/04/02 07:48:45;;;;;;;1.15;0.80;;;19.00;55.30;;;;;;4980578;28;20222;-65
2023/04/02 07:51:19;;;;;;;0.60;0.60;;;19.00;55.30;;;;;;4956293;28;20244;-65
2023/04/02 07:53:48;;;;;;;0.80;0.80;;;19.00;55.30;;;;;;4972229;28;20193;-65
2023/04/02 07:56:17;;;;;;;0.85;0.85;;;19.00;55.30;;;;;;4972163;28;20194;-65
2023/04/02 07:58:44;;;;;;;1.38;0.63;;;19.00;55.30;;;;;;4986459;28;20754;-65
2023/04/02 08:01:39;;;;;;;0.90;0.90;;;19.00;55.30;;;;;;4958786;28;20206;-65
2023/04/02 08:04:06;;;;;;;0.80;0.80;;;19.00;55.30;;;;;;4939677;28;20241;-66
2023/04/02 08:06:32;;;;;;;1.85;0.90;;;19.00;55.30;;;;;;4974035;28;20178;-65
2023/04/02 08:08:58;;;;;;;0.70;0.70;;;19.00;55.30;;;;;;4975055;28;20193;-65
2023/04/02 08:11:24;;;;;;;0.80;0.80;;;19.00;55.30;;;;;;4974858;28;20220;-65
2023/04/02 08:13:50;;;;;;;0.63;0.63;;;19.00;55.40;;;;;;4975114;28;20201;-65
2023/04/02 08:16:16;;;;;;;0.85;0.85;;;19.00;55.40;;;;;;4974780;28;20182;-65
2023/04/02 08:18:42;;;;;;;0.70;0.70;;;19.00;55.40;;;;;;4975831;28;20213;-66
2023/04/02 08:21:09;;;;;;;0.90;0.90;;;19.00;55.40;;;;;;4975331;28;20209;-65
2023/04/02 08:23:36;;;;;;;0.98;0.90;;;19.00;55.40;;;;;;4971666;28;20187;-65
2023/04/02 08:26:04;;;;;;;0.77;0.70;;;19.00;55.40;;;;;;4987208;28;20185;-65
2023/04/02 08:28:30;;;;;;;0.77;0.77;;;19.00;55.30;;;;;;4974620;28;20209;-65
2023/04/02 08:30:56;;;;;;;0.70;0.70;;;19.00;55.30;;;;;;4955268;29;20216;-65
2023/04/02 08:33:22;;;;;;;0.70;0.70;;;19.10;55.30;;;;;;4957136;28;20208;-65
2023/04/02 08:35:49;;;;;;;0.80;0.80;;;19.00;55.20;;;;;;4974511;28;20190;-65
2023/04/02 08:38:18;;;;;;;1.20;0.70;;;19.00;55.20;;;;;;4981590;28;20205;-66
2023/04/02 08:40:55;;;;;;;1.63;0.70;;;19.00;55.30;;;;;;4970959;28;20590;-65
2023/04/02 08:43:37;;;;;;;1.77;0.90;;;19.10;55.30;;;;;;4956956;28;20189;-66
2023/04/02 08:46:33;;;;;;;0.80;0.80;;;19.00;55.20;;;;;;4955364;29;20198;-65
2023/04/02 08:49:10;;;;;;;0.75;0.75;;;19.10;55.40;;;;;;4969814;28;20205;-66
2023/04/02 08:51:36;;;;;;;0.70;0.70;;;19.10;55.40;;;;;;4953851;28;20210;-66
2023/04/02 08:54:28;;;;;;;2.20;0.80;;;19.10;55.40;;;;;;4987021;28;20257;-66
2023/04/02 08:56:56;;;;;;;0.98;0.98;;;19.10;55.40;;;;;;4974506;28;20197;-66
2023/04/02 08:59:39;;;;;;;0.68;0.68;;;19.10;55.40;;;;;;4957799;28;20217;-66
2023/04/02 09:02:45;;;;;;;0.63;0.63;;;19.10;55.40;;;;;;4980987;28;20217;-66
2023/04/02 09:05:25;;;;;;;0.63;0.63;;;19.10;55.40;;;;;;4975583;28;20628;-66
2023/04/02 09:07:52;;;;;;;0.70;0.70;;;19.10;55.40;;;;;;4975270;28;20280;-65
2023/04/02 09:10:19;;;;;;;0.77;0.77;;;19.10;55.40;;;;;;4957462;28;20212;-66
2023/04/02 09:12:51;;;;;;;0.57;0.57;;;19.10;55.40;;;;;;4980539;28;20276;-66
2023/04/02 09:15:30;;;;;;;0.70;0.70;;;19.10;55.40;;;;;;4973610;28;20185;-65
2023/04/02 09:18:15;;;;;;;0.73;0.63;;;19.10;55.40;;;;;;4971339;28;20189;-66
2023/04/02 09:20:42;;;;;;;0.73;0.73;;;19.10;55.40;;;;;;4973556;28;20213;-66
2023/04/02 09:23:18;;;;;;;0.70;0.70;;;19.10;55.40;;;;;;4973856;28;20208;-66
2023/04/02 09:25:48;;;;;;;0.75;0.75;;;19.10;55.40;;;;;;4950808;28;20177;-66
2023/04/02 09:28:14;;;;;;;0.80;0.80;;;19.20;55.40;;;;;;4965364;28;20247;-66
2023/04/02 09:31:09;;;;;;;1.15;0.70;;;19.10;55.30;;;;;;4973331;28;20225;-65
2023/04/02 09:33:47;;;;;;;0.70;0.70;;;19.20;55.40;;;;;;4972738;28;20190;-66
2023/04/02 09:36:32;;;;;;;0.85;0.70;;;19.20;55.40;;;;;;4956960;28;20217;-69
2023/04/02 09:39:15;;;;;;;1.08;0.98;;;19.20;55.40;;;;;;4953825;29;20210;-66
2023/04/02 09:41:41;;;;;;;0.73;0.73;;;19.20;55.40;;;;;;4967759;28;20300;-66
2023/04/02 09:44:22;;;;;;;0.70;0.70;;;19.20;55.40;;;;;;4969402;28;20277;-66
2023/04/02 09:46:51;;;;;;;0.60;0.60;;;19.20;55.50;;;;;;4969896;28;20181;-65
2023/04/02 09:49:21;;;;;;;1.60;0.90;;;19.10;55.40;;;;;;4959481;28;20248;-65
2023/04/02 09:52:28;;;;;;;0.50;0.50;;;19.10;55.50;;;;;;4966818;28;20202;-65
2023/04/02 09:55:20;;;;;;;1.40;0.63;;;19.20;55.50;;;;;;4965729;28;20312;-66
2023/04/02 09:57:49;;;;;;;0.60;0.60;;;19.10;55.50;;;;;;4958479;28;20195;-67
2023/04/02 10:00:22;;;;;;;0.70;0.70;;;19.10;55.50;;;;;;4953347;28;20210;-64
2023/04/02 10:03:05;;;;;;;0.70;0.70;;;19.10;55.50;;;;;;4956620;28;20657;-66
2023/04/02 10:05:34;;;;;;;1.65;0.70;;;19.10;55.50;;;;;;4956060;28;20530;-65
2023/04/02 10:08:17;;;;;;;0.95;0.70;;;19.20;55.60;;;;;;4972896;28;20182;-66
2023/04/02 10:10:49;;;;;;;2.17;0.73;;;19.20;55.60;;;;;;4972567;28;20606;-65
2023/04/02 10:13:30;;;;;;;0.80;0.50;;;19.20;55.60;;;;;;4973860;28;20236;-66
2023/04/02 10:16:05;;;;;;;0.70;0.70;;;19.20;55.60;;;;;;4980744;28;20190;-65
2023/04/02 10:19:13;;;;;;;0.75;0.60;;;19.20;55.60;;;;;;4980653;28;20212;-65
2023/04/02 10:21:42;;;;;;;0.90;0.63;;;19.20;55.50;;;;;;4972050;28;20221;-65
2023/04/02 10:24:15;;;;;;;0.70;0.70;;;19.20;56.10;;;;;;4972508;28;20205;-65
2023/04/02 10:27:01;;;;;;;7.88;0.80;;;19.20;55.50;;;;;;4972481;28;20566;-65
2023/04/02 10:29:52;;;;;;;1.23;0.80;;;19.20;55.50;;;;;;4956326;28;20201;-65
2023/04/02 10:32:32;;;;;;;0.60;0.60;;;19.20;55.60;;;;;;4956336;28;20190;-66
2023/04/02 10:35:07;;;;;;;6.95;0.80;;;19.20;55.60;;;;;;4969255;28;20200;-65
2023/04/02 10:37:48;;;;;;;0.82;0.73;;;19.10;55.50;;;;;;4987409;28;20197;-65
2023/04/02 10:40:35;;;;;;;1.33;0.60;;;19.10;55.60;;;;;;4971898;28;20217;-65
2023/04/02 10:43:26;;;;;;;0.52;0.52;;;19.10;55.60;;;;;;4983387;28;20182;-66
2023/04/02 10:46:31;;;;;;;0.60;0.60;;;19.10;55.60;;;;;;4965701;28;20273;-65
2023/04/02 10:49:21;;;;;;;1.33;0.65;;;19.10;56.20;;;;;;4969303;28;20210;-65
2023/04/02 10:51:58;;;;;;;1.17;0.80;;;19.10;55.60;;;;;;4945390;29;20569;-64
2023/04/02 10:54:38;;;;;;;0.82;0.63;;;19.20;55.60;;;;;;4967529;28;20201;-65
2023/04/02 10:57:21;;;;;;;0.77;0.70;;;19.10;55.60;;;;;;4973107;28;20195;-65
2023/04/02 10:59:58;;;;;;;1.40;0.82;;;19.10;55.70;;;;;;4964717;28;20201;-66
2023/04/02 11:02:37;;;;;;;0.77;0.77;;;19.10;55.60;;;;;;4973516;28;20679;-66
2023/04/02 11:05:18;;;;;;;1.45;1.00;;;19.10;55.70;;;;;;4973291;28;20191;-66
2023/04/02 11:07:53;;;;;;;1.92;1.00;;;19.10;55.70;;;;;;4971980;28;20189;-65
2023/04/02 11:10:20;;;;;;;0.80;0.80;;;19.10;55.70;;;;;;4963540;28;20224;-65
2023/04/02 11:12:58;;;;;;;0.65;0.65;;;19.10;55.60;;;;;;4953035;28;20190;-65
2023/04/02 11:15:26;;;;;;;0.60;0.55;;;19.10;55.70;;;;;;4964735;28;20206;-66
2023/04/02 11:17:52;;;;;;;0.60;0.60;;;19.10;55.70;;;;;;4952772;29;20186;-65
2023/04/02 11:20:48;;;;;;;1.25;0.70;;;19.10;55.70;;;;;;4951662;28;20300;-68
2023/04/02 11:23:18;;;;;;;3.15;0.73;;;19.10;55.70;;;;;;4964359;28;20190;-66
2023/04/02 11:25:45;;;;;;;0.70;0.70;;;19.10;55.70;;;;;;4976889;28;20190;-66
2023/04/02 11:28:32;;;;;;;2.05;0.70;;;19.10;55.70;;;;;;4967601;28;20191;-66
2023/04/02 11:30:58;;;;;;;0.50;0.50;;;19.10;55.70;;;;;;4955297;28;20205;-66
2023/04/02 11:33:30;;;;;;;1.10;0.70;;;19.10;55.70;;;;;;4968807;28;20189;-66
2023/04/02 11:35:56;;;;;;;0.80;0.80;;;19.10;55.60;;;;;;4977634;28;20181;-66
2023/04/02 11:38:21;;;;;;;0.73;0.73;;;19.10;55.60;;;;;;4971508;28;20605;-65
2023/04/02 11:40:55;;;;;;;1.25;0.60;;;19.10;55.70;;;;;;4970827;28;20281;-66
2023/04/02 11:43:34;;;;;;;1.30;0.70;;;19.10;55.70;;;;;;4971593;28;20240;-66
2023/04/02 11:46:39;;;;;;;0.80;0.80;;;19.10;55.60;;;;;;4972866;28;20201;-65
2023/04/02 11:49:36;;;;;;;1.05;0.70;;;19.10;55.60;;;;;;4951886;28;20669;-66
2023/04/02 11:52:04;;;;;;;0.95;0.70;;;19.10;55.60;;;;;;4965749;28;20209;-65
2023/04/02 11:54:36;;;;;;;1.45;0.70;;;19.20;55.80;;;;;;4973266;28;20236;-66
2023/04/02 11:57:54;;;;;;;1.42;0.60;;;19.10;55.70;;;;;;4978755;28;20280;-65
2023/04/02 12:01:17;;;;;;;0.70;0.70;;;19.10;55.70;;;;;;4912265;28;20225;-67
2023/04/02 12:04:03;;;;;;;1.65;0.70;;;19.10;55.70;;;;;;4955082;28;20185;-65
2023/04/02 12:07:09;;;;;;;1.50;0.80;;;19.10;55.80;;;;;;4985492;28;20661;-66
2023/04/02 12:09:50;;;;;;;1.17;0.50;;;19.10;55.70;;;;;;4969758;28;20194;-65
2023/04/02 12:12:37;;;;;;;0.95;0.70;;;19.10;55.80;;;;;;4983923;28;20284;-65
2023/04/02 12:15:45;;;;;;;0.90;0.50;;;19.10;55.70;;;;;;4981801;28;20193;-66
2023/04/02 12:18:16;;;;;;;1.13;0.70;;;19.10;55.70;;;;;;4966690;28;20296;-64
2023/04/02 12:21:14;;;;;;;0.60;0.60;;;19.10;55.70;;;;;;4971734;28;20225;-65
2023/04/02 12:23:46;;;;;;;2.05;0.88;;;19.10;55.70;;;;;;4970930;28;20193;-65
2023/04/02 12:26:36;;;;;;;0.65;0.65;;;19.10;55.70;;;;;;4972156;28;20221;-65
2023/04/02 12:29:27;;;;;;;0.55;0.55;;;19.10;55.70;;;;;;4959084;28;20205;-64
2023/04/02 12:31:56;;;;;;;0.70;0.70;;;19.10;55.60;;;;;;4971250;28;20237;-65
2023/04/02 12:34:25;;;;;;;1.50;0.63;;;19.20;55.70;;;;;;4971283;28;20190;-65
2023/04/02 12:37:04;;;;;;;0.98;0.80;;;19.20;55.80;;;;;;4974587;28;20232;-66
2023/04/02 12:39:33;;;;;;;0.85;0.80;;;19.20;55.70;;;;;;4974392;28;20213;-65
2023/04/02 12:42:00;;;;;;;1.15;0.75;;;19.20;55.60;;;;;;4958111;28;20244;-64
2023/04/02 12:44:29;;;;;;;0.70;0.60;;;19.20;55.70;;;;;;4958098;28;20186;-65
2023/04/02 12:46:56;;;;;;;0.70;0.70;;;19.20;55.60;;;;;;4973386;28;20194;-65
2023/04/02 12:49:43;;;;;;;0.88;0.75;;;19.20;55.60;;;;;;4955187;29;20186;-65
2023/04/02 12:52:16;;;;;;;0.80;0.80;;;19.20;55.70;;;;;;4974377;28;20209;-64
2023/04/02 12:54:53;;;;;;;1.40;0.70;;;19.20;55.70;;;;;;4974112;28;20200;-65
2023/04/02 12:57:24;;;;;;;0.60;0.60;;;19.30;55.80;;;;;;4975490;28;20196;-65
2023/04/02 13:00:26;;;;;;;1.27;0.77;;;19.20;55.60;;;;;;4974135;28;20252;-67
2023/04/02 13:03:16;;;;;;;1.00;0.90;;;19.20;55.70;;;;;;4953323;28;20201;-65
2023/04/02 13:05:55;;;;;;;0.68;0.60;;;19.20;55.70;;;;;;4974077;28;20701;-65
2023/04/02 13:08:26;;;;;;;1.25;0.68;;;19.20;55.70;;;;;;4978173;28;20197;-66
2023/04/02 13:11:00;;;;;;;1.33;0.70;;;19.30;55.90;;;;;;4964635;28;20206;-65
2023/04/02 13:13:36;;;;;;;1.20;0.80;;;19.20;55.80;;;;;;4971662;28;20198;-65
2023/04/02 13:16:23;;;;;;;0.63;0.63;;;19.20;55.70;;;;;;4981604;28;20244;-65
2023/04/02 13:18:49;;;;;;;0.85;0.70;;;19.30;55.80;;;;;;4993297;28;20237;-64
2023/04/02 13:21:15;;;;;;;0.60;0.60;;;19.20;55.80;;;;;;4974856;28;20229;-65
2023/04/02 13:23:42;;;;;;;1.13;1.00;;;19.30;55.80;;;;;;4987652;28;20194;-66
2023/04/02 13:26:19;;;;;;;1.17;0.65;;;19.30;56.40;;;;;;4957774;28;20301;-65
2023/04/02 13:29:18;;;;;;;0.88;0.85;;;19.30;55.80;;;;;;4973059;28;20263;-65
2023/04/02 13:31:44;;;;;;;0.70;0.70;;;19.30;55.80;;;;;;4991087;28;20221;-64
2023/04/02 13:34:09;;;;;;;1.80;0.65;;;19.30;55.80;;;;;;4971711;28;20241;-64
2023/04/02 13:36:36;;;;;;;0.70;0.70;;;19.30;55.80;;;;;;4972853;28;20186;-63
2023/04/02 13:39:02;;;;;;;0.90;0.68;;;19.30;55.90;;;;;;4970202;28;20225;-64
2023/04/02 13:41:56;;;;;;;1.92;0.90;;;19.30;55.90;;;;;;4967023;28;20713;-64
2023/04/02 13:44:31;;;;;;;1.55;0.60;;;19.30;55.90;;;;;;4974574;28;20190;-65
2023/04/02 13:46:58;;;;;;;2.67;0.90;;;19.30;56.10;;;;;;4967248;28;20189;-65
2023/04/02 13:49:25;;;;;;;3.97;0.90;;;19.40;56.20;;;;;;4957203;28;20256;-65